sensor_id;sensor_type;location;lat;lon;timestamp;pressure;altitude;pressure_sealevel;temperature;humidity
10060;BME280;5069;49.306;8.636;2022-12-17T00:00:17;101072.03;;;-5.38;96.67
10060;BME280;5069;49.306;8.636;2022-12-17T00:03:37;101069.69;;;-5.32;96.87
10060;BME280;5069;49.306;8.636;2022-12-17T00:06:57;101078.13;;;-5.36;95.63
10060;BME280;5069;49.306;8.636;2022-12-17T00:10:17;101078.41;;;-5.29;95.70
10060;BME280;5069;49.306;8.636;2022-12-17T00:13:38;101083.78;;;-5.23;94.96
10060;BME280;5069;49.306;8.636;2022-12-17T00:16:57;101085.72;;;-5.17;94.56
10060;BME280;5069;49.306;8.636;2022-12-17T00:20:17;101079.16;;;-5.31;93.12
10060;BME280;5069;49.306;8.636;2022-12-17T00:23:52;101077.22;;;-5.37;93.60
10060;BME280;5069;49.306;8.636;2022-12-17T00:27:12;101076.34;;;-5.37;93.65
10060;BME280;5069;49.306;8.636;2022-12-17T00:30:32;101085.38;;;-5.47;93.93
10060;BME280;5069;49.306;8.636;2022-12-17T00:33:53;101084.94;;;-5.37;95.25
10060;BME280;5069;49.306;8.636;2022-12-17T00:37:13;101087.19;;;-5.45;93.36
10060;BME280;5069;49.306;8.636;2022-12-17T00:40:33;101100.44;;;-5.35;94.51
10060;BME280;5069;49.306;8.636;2022-12-17T00:44:07;101093.28;;;-5.43;92.84
10060;BME280;5069;49.306;8.636;2022-12-17T00:47:26;101097.09;;;-5.73;92.85
10060;BME280;5069;49.306;8.636;2022-12-17T00:50:46;101097.81;;;-5.77;95.19
10060;BME280;5069;49.306;8.636;2022-12-17T00:54:07;101096.03;;;-5.78;95.65
10060;BME280;5069;49.306;8.636;2022-12-17T00:57:27;101098.50;;;-5.81;95.65
10060;BME280;5069;49.306;8.636;2022-12-17T01:00:48;101112.25;;;-5.79;95.61
10060;BME280;5069;49.306;8.636;2022-12-17T01:04:28;101116.41;;;-5.62;95.76
10060;BME280;5069;49.306;8.636;2022-12-17T01:07:48;101122.06;;;-5.50;94.23
10060;BME280;5069;49.306;8.636;2022-12-17T01:11:08;101121.19;;;-5.50;92.93
10060;BME280;5069;49.306;8.636;2022-12-17T01:14:28;101126.56;;;-5.65;92.18
10060;BME280;5069;49.306;8.636;2022-12-17T01:17:48;101132.44;;;-5.88;92.83
10060;BME280;5069;49.306;8.636;2022-12-17T01:21:08;101140.56;;;-5.98;93.09
10060;BME280;5069;49.306;8.636;2022-12-17T01:24:28;101143.25;;;-5.95;95.03
10060;BME280;5069;49.306;8.636;2022-12-17T01:27:49;101142.00;;;-6.03;94.98
10060;BME280;5069;49.306;8.636;2022-12-17T01:31:10;101141.19;;;-6.02;95.18
10060;BME280;5069;49.306;8.636;2022-12-17T01:34:35;101141.81;;;-6.08;93.69
10060;BME280;5069;49.306;8.636;2022-12-17T01:37:56;101148.06;;;-6.20;93.16
10060;BME280;5069;49.306;8.636;2022-12-17T01:41:18;101159.09;;;-6.23;93.09
10060;BME280;5069;49.306;8.636;2022-12-17T01:48:01;101170.72;;;-6.12;93.35
10060;BME280;5069;49.306;8.636;2022-12-17T01:51:23;101179.09;;;-6.16;92.35
10060;BME280;5069;49.306;8.636;2022-12-17T01:54:43;101181.44;;;-6.20;91.82
10060;BME280;5069;49.306;8.636;2022-12-17T01:58:04;101182.09;;;-6.24;91.75
10060;BME280;5069;49.306;8.636;2022-12-17T02:01:24;101180.50;;;-6.22;92.85
10060;BME280;5069;49.306;8.636;2022-12-17T02:04:45;101185.91;;;-6.16;92.58
10060;BME280;5069;49.306;8.636;2022-12-17T02:08:17;101192.06;;;-6.13;92.43
10060;BME280;5069;49.306;8.636;2022-12-17T02:15:33;101187.91;;;-6.09;92.66
10060;BME280;5069;49.306;8.636;2022-12-17T02:19:26;101189.97;;;-6.21;91.69
10060;BME280;5069;49.306;8.636;2022-12-17T02:23:01;101193.44;;;-6.19;92.75
10060;BME280;5069;49.306;8.636;2022-12-17T02:26:35;101199.38;;;-6.20;92.28
10060;BME280;5069;49.306;8.636;2022-12-17T02:29:59;101208.03;;;-6.18;92.78
10060;BME280;5069;49.306;8.636;2022-12-17T02:33:22;101202.03;;;-6.19;92.33
10060;BME280;5069;49.306;8.636;2022-12-17T02:36:44;101199.66;;;-6.14;92.29
10060;BME280;5069;49.306;8.636;2022-12-17T02:40:05;101207.81;;;-6.05;91.98
10060;BME280;5069;49.306;8.636;2022-12-17T02:43:26;101198.91;;;-5.94;91.34
10060;BME280;5069;49.306;8.636;2022-12-17T02:46:50;101202.66;;;-5.86;90.92
10060;BME280;5069;49.306;8.636;2022-12-17T02:50:11;101204.69;;;-5.79;91.18
10060;BME280;5069;49.306;8.636;2022-12-17T02:53:32;101209.53;;;-5.85;90.86
10060;BME280;5069;49.306;8.636;2022-12-17T02:56:52;101211.84;;;-6.10;90.88
10060;BME280;5069;49.306;8.636;2022-12-17T03:00:13;101222.16;;;-6.46;91.47
10060;BME280;5069;49.306;8.636;2022-12-17T03:03:33;101225.78;;;-6.76;93.29
10060;BME280;5069;49.306;8.636;2022-12-17T03:06:53;101224.88;;;-6.78;95.05
10060;BME280;5069;49.306;8.636;2022-12-17T03:10:15;101228.56;;;-6.72;95.57
10060;BME280;5069;49.306;8.636;2022-12-17T03:13:35;101237.50;;;-6.81;93.25
10060;BME280;5069;49.306;8.636;2022-12-17T03:16:56;101243.34;;;-7.01;94.33
10060;BME280;5069;49.306;8.636;2022-12-17T03:20:17;101248.31;;;-7.04;95.65
10060;BME280;5069;49.306;8.636;2022-12-17T03:23:37;101253.72;;;-6.98;96.64
10060;BME280;5069;49.306;8.636;2022-12-17T03:26:57;101250.50;;;-6.94;95.31
10060;BME280;5069;49.306;8.636;2022-12-17T03:30:18;101253.25;;;-6.91;95.21
10060;BME280;5069;49.306;8.636;2022-12-17T03:33:39;101254.63;;;-6.98;94.66
10060;BME280;5069;49.306;8.636;2022-12-17T03:36:59;101260.31;;;-7.03;95.15
10060;BME280;5069;49.306;8.636;2022-12-17T03:40:19;101256.91;;;-7.20;94.72
10060;BME280;5069;49.306;8.636;2022-12-17T03:43:39;101261.78;;;-7.25;95.77
10060;BME280;5069;49.306;8.636;2022-12-17T03:47:00;101264.19;;;-7.28;95.18
10060;BME280;5069;49.306;8.636;2022-12-17T03:50:20;101273.50;;;-7.30;94.47
10060;BME280;5069;49.306;8.636;2022-12-17T03:53:40;101271.25;;;-7.24;94.27
10060;BME280;5069;49.306;8.636;2022-12-17T03:57:01;101265.81;;;-7.30;93.90
10060;BME280;5069;49.306;8.636;2022-12-17T04:00:21;101264.34;;;-7.25;94.68
10060;BME280;5069;49.306;8.636;2022-12-17T04:03:40;101262.25;;;-7.16;95.81
10060;BME280;5069;49.306;8.636;2022-12-17T04:07:00;101273.59;;;-7.11;95.20
10060;BME280;5069;49.306;8.636;2022-12-17T04:10:20;101272.19;;;-7.22;93.83
10060;BME280;5069;49.306;8.636;2022-12-17T04:13:41;101275.63;;;-7.21;93.72
10060;BME280;5069;49.306;8.636;2022-12-17T04:17:01;101281.56;;;-7.38;92.49
10060;BME280;5069;49.306;8.636;2022-12-17T04:20:20;101291.72;;;-7.40;94.44
10060;BME280;5069;49.306;8.636;2022-12-17T04:23:40;101298.00;;;-7.35;94.26
10060;BME280;5069;49.306;8.636;2022-12-17T04:27:00;101293.72;;;-7.34;92.75
10060;BME280;5069;49.306;8.636;2022-12-17T04:30:20;101302.94;;;-7.38;93.15
10060;BME280;5069;49.306;8.636;2022-12-17T04:33:40;101293.16;;;-7.45;92.56
10060;BME280;5069;49.306;8.636;2022-12-17T04:37:00;101301.03;;;-7.58;94.18
10060;BME280;5069;49.306;8.636;2022-12-17T04:40:21;101306.94;;;-7.59;95.85
10060;BME280;5069;49.306;8.636;2022-12-17T04:43:41;101310.50;;;-7.72;97.62
10060;BME280;5069;49.306;8.636;2022-12-17T04:47:03;101307.72;;;-7.76;99.81
10060;BME280;5069;49.306;8.636;2022-12-17T04:50:23;101304.69;;;-7.69;100.00
10060;BME280;5069;49.306;8.636;2022-12-17T04:53:43;101320.94;;;-7.53;100.00
10060;BME280;5069;49.306;8.636;2022-12-17T04:57:03;101324.16;;;-7.40;100.00
10060;BME280;5069;49.306;8.636;2022-12-17T05:00:23;101315.66;;;-7.39;100.00
10060;BME280;5069;49.306;8.636;2022-12-17T05:03:43;101309.97;;;-7.34;100.00
10060;BME280;5069;49.306;8.636;2022-12-17T05:07:03;101315.03;;;-7.35;100.00
10060;BME280;5069;49.306;8.636;2022-12-17T05:10:24;101318.94;;;-7.42;99.66
10060;BME280;5069;49.306;8.636;2022-12-17T05:13:43;101326.44;;;-7.45;99.69
10060;BME280;5069;49.306;8.636;2022-12-17T05:17:03;101328.22;;;-7.44;100.00
10060;BME280;5069;49.306;8.636;2022-12-17T05:20:23;101330.31;;;-7.37;100.00
10060;BME280;5069;49.306;8.636;2022-12-17T05:23:43;101341.59;;;-7.33;100.00
10060;BME280;5069;49.306;8.636;2022-12-17T05:27:20;101341.78;;;-7.30;100.00
10060;BME280;5069;49.306;8.636;2022-12-17T05:30:40;101346.31;;;-7.41;100.00
10060;BME280;5069;49.306;8.636;2022-12-17T05:34:00;101355.59;;;-7.43;100.00
10060;BME280;5069;49.306;8.636;2022-12-17T05:37:20;101360.72;;;-7.43;100.00
10060;BME280;5069;49.306;8.636;2022-12-17T05:40:40;101359.75;;;-7.45;100.00
10060;BME280;5069;49.306;8.636;2022-12-17T05:44:00;101364.88;;;-7.45;100.00
10060;BME280;5069;49.306;8.636;2022-12-17T05:47:20;101370.63;;;-7.49;100.00
10060;BME280;5069;49.306;8.636;2022-12-17T05:50:40;101371.59;;;-7.47;99.55
10060;BME280;5069;49.306;8.636;2022-12-17T05:54:00;101373.09;;;-7.51;97.90
10060;BME280;5069;49.306;8.636;2022-12-17T05:57:21;101381.66;;;-7.50;97.58
10060;BME280;5069;49.306;8.636;2022-12-17T06:00:41;101385.84;;;-7.52;97.40
10060;BME280;5069;49.306;8.636;2022-12-17T06:04:01;101390.31;;;-7.48;98.03
10060;BME280;5069;49.306;8.636;2022-12-17T06:07:21;101390.91;;;-7.37;97.82
10060;BME280;5069;49.306;8.636;2022-12-17T06:10:41;101392.13;;;-7.31;97.34
10060;BME280;5069;49.306;8.636;2022-12-17T06:14:01;101393.06;;;-7.29;97.25
10060;BME280;5069;49.306;8.636;2022-12-17T06:17:21;101397.94;;;-7.17;97.63
10060;BME280;5069;49.306;8.636;2022-12-17T06:20:41;101408.63;;;-7.10;96.84
10060;BME280;5069;49.306;8.636;2022-12-17T06:24:01;101414.88;;;-7.04;95.52
10060;BME280;5069;49.306;8.636;2022-12-17T06:27:21;101422.41;;;-7.07;94.47
10060;BME280;5069;49.306;8.636;2022-12-17T06:30:41;101412.47;;;-7.18;93.35
10060;BME280;5069;49.306;8.636;2022-12-17T06:34:01;101418.38;;;-7.35;93.50
10060;BME280;5069;49.306;8.636;2022-12-17T06:37:21;101430.34;;;-7.34;93.95
10060;BME280;5069;49.306;8.636;2022-12-17T06:40:41;101425.22;;;-7.34;94.07
10060;BME280;5069;49.306;8.636;2022-12-17T06:44:01;101426.34;;;-7.29;94.21
10060;BME280;5069;49.306;8.636;2022-12-17T06:47:21;101428.13;;;-7.28;94.37
10060;BME280;5069;49.306;8.636;2022-12-17T06:50:41;101435.00;;;-7.27;93.65
10060;BME280;5069;49.306;8.636;2022-12-17T06:54:01;101446.06;;;-7.28;94.12
10060;BME280;5069;49.306;8.636;2022-12-17T06:57:20;101446.84;;;-7.29;94.11
10060;BME280;5069;49.306;8.636;2022-12-17T07:00:46;101442.53;;;-7.61;92.13
10060;BME280;5069;49.306;8.636;2022-12-17T07:04:06;101458.91;;;-7.88;91.94
10060;BME280;5069;49.306;8.636;2022-12-17T07:07:27;101453.47;;;-8.09;93.13
10060;BME280;5069;49.306;8.636;2022-12-17T07:10:47;101467.81;;;-8.11;93.58
10060;BME280;5069;49.306;8.636;2022-12-17T07:14:07;101473.00;;;-8.24;92.70
10060;BME280;5069;49.306;8.636;2022-12-17T07:17:27;101482.47;;;-8.38;92.54
10060;BME280;5069;49.306;8.636;2022-12-17T07:20:47;101497.16;;;-8.48;92.72
10060;BME280;5069;49.306;8.636;2022-12-17T07:24:08;101504.66;;;-8.51;93.25
10060;BME280;5069;49.306;8.636;2022-12-17T07:27:28;101502.50;;;-8.58;92.95
10060;BME280;5069;49.306;8.636;2022-12-17T07:30:48;101509.00;;;-8.50;93.37
10060;BME280;5069;49.306;8.636;2022-12-17T07:34:08;101520.84;;;-8.38;93.27
10060;BME280;5069;49.306;8.636;2022-12-17T07:37:28;101528.13;;;-8.29;92.82
10060;BME280;5069;49.306;8.636;2022-12-17T07:40:47;101532.34;;;-8.29;92.25
10060;BME280;5069;49.306;8.636;2022-12-17T07:44:07;101531.75;;;-8.40;91.01
10060;BME280;5069;49.306;8.636;2022-12-17T07:47:27;101534.69;;;-8.34;92.02
10060;BME280;5069;49.306;8.636;2022-12-17T07:50:48;101543.34;;;-8.32;92.45
10060;BME280;5069;49.306;8.636;2022-12-17T07:54:08;101549.13;;;-8.20;93.08
10060;BME280;5069;49.306;8.636;2022-12-17T07:57:28;101550.72;;;-8.22;93.00
10060;BME280;5069;49.306;8.636;2022-12-17T08:00:48;101544.38;;;-8.14;94.24
10060;BME280;5069;49.306;8.636;2022-12-17T08:04:08;101547.41;;;-8.06;94.20
10060;BME280;5069;49.306;8.636;2022-12-17T08:07:28;101556.59;;;-7.95;94.82
10060;BME280;5069;49.306;8.636;2022-12-17T08:10:49;101561.09;;;-7.76;95.06
10060;BME280;5069;49.306;8.636;2022-12-17T08:14:09;101567.19;;;-7.60;94.93
10060;BME280;5069;49.306;8.636;2022-12-17T08:17:29;101574.44;;;-7.38;94.84
10060;BME280;5069;49.306;8.636;2022-12-17T08:20:49;101578.13;;;-7.33;95.01
10060;BME280;5069;49.306;8.636;2022-12-17T08:24:09;101582.91;;;-7.24;96.18
10060;BME280;5069;49.306;8.636;2022-12-17T08:27:29;101580.94;;;-7.14;97.32
10060;BME280;5069;49.306;8.636;2022-12-17T08:30:49;101595.72;;;-6.93;98.33
10060;BME280;5069;49.306;8.636;2022-12-17T08:34:09;101604.34;;;-6.77;98.11
10060;BME280;5069;49.306;8.636;2022-12-17T08:37:29;101600.22;;;-6.58;98.57
10060;BME280;5069;49.306;8.636;2022-12-17T08:40:49;101602.69;;;-6.60;97.88
10060;BME280;5069;49.306;8.636;2022-12-17T08:44:10;101608.16;;;-6.54;98.38
10060;BME280;5069;49.306;8.636;2022-12-17T08:47:30;101606.16;;;-6.43;98.93
10060;BME280;5069;49.306;8.636;2022-12-17T08:50:50;101615.09;;;-6.20;98.97
10060;BME280;5069;49.306;8.636;2022-12-17T08:54:11;101612.47;;;-6.06;100.00
10060;BME280;5069;49.306;8.636;2022-12-17T08:57:31;101602.53;;;-6.00;100.00
10060;BME280;5069;49.306;8.636;2022-12-17T09:00:51;101609.66;;;-5.26;100.00
10060;BME280;5069;49.306;8.636;2022-12-17T09:04:11;101603.25;;;-5.17;95.67
10060;BME280;5069;49.306;8.636;2022-12-17T09:07:31;101611.88;;;-5.50;94.00
10060;BME280;5069;49.306;8.636;2022-12-17T09:10:51;101619.72;;;-5.65;95.97
10060;BME280;5069;49.306;8.636;2022-12-17T09:14:11;101614.81;;;-5.60;97.38
10060;BME280;5069;49.306;8.636;2022-12-17T09:17:31;101617.56;;;-5.39;97.79
10060;BME280;5069;49.306;8.636;2022-12-17T09:20:55;101618.53;;;-5.37;96.21
10060;BME280;5069;49.306;8.636;2022-12-17T09:24:15;101623.66;;;-5.37;94.89
10060;BME280;5069;49.306;8.636;2022-12-17T09:27:35;101630.31;;;-5.41;93.92
10060;BME280;5069;49.306;8.636;2022-12-17T09:30:59;101633.94;;;-5.37;93.87
10060;BME280;5069;49.306;8.636;2022-12-17T09:34:19;101626.84;;;-5.25;96.54
10060;BME280;5069;49.306;8.636;2022-12-17T09:37:39;101636.94;;;-5.28;97.27
10060;BME280;5069;49.306;8.636;2022-12-17T09:41:11;101635.63;;;-5.38;97.48
10060;BME280;5069;49.306;8.636;2022-12-17T09:44:50;101638.22;;;-5.54;99.37
10060;BME280;5069;49.306;8.636;2022-12-17T09:51:55;101642.97;;;-5.28;100.00
10060;BME280;5069;49.306;8.636;2022-12-17T09:55:22;101637.69;;;-4.79;100.00
10060;BME280;5069;49.306;8.636;2022-12-17T09:58:44;101630.13;;;-4.39;96.38
10060;BME280;5069;49.306;8.636;2022-12-17T10:02:16;101625.22;;;-3.96;92.50
10060;BME280;5069;49.306;8.636;2022-12-17T10:05:37;101631.66;;;-3.67;88.92
10060;BME280;5069;49.306;8.636;2022-12-17T10:09:01;101622.81;;;-3.53;86.94
10060;BME280;5069;49.306;8.636;2022-12-17T10:12:22;101622.81;;;-3.53;86.74
10060;BME280;5069;49.306;8.636;2022-12-17T10:15:42;101619.19;;;-3.38;85.91
10060;BME280;5069;49.306;8.636;2022-12-17T10:19:02;101622.47;;;-3.21;83.28
10060;BME280;5069;49.306;8.636;2022-12-17T10:22:27;101628.00;;;-3.12;83.39
10060;BME280;5069;49.306;8.636;2022-12-17T10:25:55;101636.72;;;-2.87;82.62
10060;BME280;5069;49.306;8.636;2022-12-17T10:29:25;101623.25;;;-2.80;80.86
10060;BME280;5069;49.306;8.636;2022-12-17T10:32:55;101634.84;;;-2.92;81.24
10060;BME280;5069;49.306;8.636;2022-12-17T10:36:21;101627.31;;;-2.65;80.91
10060;BME280;5069;49.306;8.636;2022-12-17T10:39:42;101632.00;;;-2.77;81.70
10060;BME280;5069;49.306;8.636;2022-12-17T10:43:02;101629.91;;;-2.65;80.57
10060;BME280;5069;49.306;8.636;2022-12-17T10:46:23;101636.53;;;-2.71;79.38
10060;BME280;5069;49.306;8.636;2022-12-17T10:49:44;101647.91;;;-2.44;79.32
10060;BME280;5069;49.306;8.636;2022-12-17T10:53:15;101642.88;;;-2.41;78.71
10060;BME280;5069;49.306;8.636;2022-12-17T10:56:37;101646.75;;;-2.30;78.69
10060;BME280;5069;49.306;8.636;2022-12-17T10:59:57;101653.09;;;-2.44;79.62
10060;BME280;5069;49.306;8.636;2022-12-17T11:03:25;101648.75;;;-2.23;78.31
10060;BME280;5069;49.306;8.636;2022-12-17T11:06:49;101650.22;;;-2.29;79.24
10060;BME280;5069;49.306;8.636;2022-12-17T11:10:15;101653.31;;;-2.16;78.93
10060;BME280;5069;49.306;8.636;2022-12-17T11:13:44;101656.50;;;-2.45;79.46
10060;BME280;5069;49.306;8.636;2022-12-17T11:17:08;101654.28;;;-2.36;80.81
10060;BME280;5069;49.306;8.636;2022-12-17T11:20:46;101649.69;;;-2.21;82.39
10060;BME280;5069;49.306;8.636;2022-12-17T11:24:31;101659.19;;;-2.64;83.32
10060;BME280;5069;49.306;8.636;2022-12-17T11:28:02;101656.31;;;-2.27;84.00
10060;BME280;5069;49.306;8.636;2022-12-17T11:31:46;101658.38;;;-2.41;81.79
10060;BME280;5069;49.306;8.636;2022-12-17T11:35:27;101654.44;;;-2.31;81.88
10060;BME280;5069;49.306;8.636;2022-12-17T11:39:13;101646.59;;;-2.34;81.91
10060;BME280;5069;49.306;8.636;2022-12-17T11:42:39;101648.53;;;-2.29;82.11
10060;BME280;5069;49.306;8.636;2022-12-17T11:50:00;101654.69;;;-2.90;88.66
10060;BME280;5069;49.306;8.636;2022-12-17T11:57:15;101639.03;;;-2.73;88.70
10060;BME280;5069;49.306;8.636;2022-12-17T12:04:15;101650.13;;;-2.75;89.22
10060;BME280;5069;49.306;8.636;2022-12-17T12:07:45;101642.53;;;-3.14;89.66
10060;BME280;5069;49.306;8.636;2022-12-17T12:11:31;101649.28;;;-2.97;91.87
10060;BME280;5069;49.306;8.636;2022-12-17T12:15:10;101662.72;;;-3.04;90.49
10060;BME280;5069;49.306;8.636;2022-12-17T12:18:54;101653.66;;;-3.15;91.54
10060;BME280;5069;49.306;8.636;2022-12-17T12:22:54;101656.31;;;-3.13;91.99
10060;BME280;5069;49.306;8.636;2022-12-17T12:26:24;101661.44;;;-3.34;93.08
10060;BME280;5069;49.306;8.636;2022-12-17T12:29:50;101654.59;;;-3.34;93.35
10060;BME280;5069;49.306;8.636;2022-12-17T12:36:43;101654.66;;;-3.32;94.69
10060;BME280;5069;49.306;8.636;2022-12-17T12:43:54;101643.34;;;-2.94;91.79
10060;BME280;5069;49.306;8.636;2022-12-17T12:47:26;101648.38;;;-2.97;91.63
10060;BME280;5069;49.306;8.636;2022-12-17T12:51:12;101655.50;;;-3.52;94.86
10060;BME280;5069;49.306;8.636;2022-12-17T12:58:25;101650.94;;;-3.18;95.97
10060;BME280;5069;49.306;8.636;2022-12-17T13:01:46;101641.28;;;-3.03;95.35
10060;BME280;5069;49.306;8.636;2022-12-17T13:08:36;101633.13;;;-2.70;91.75
10060;BME280;5069;49.306;8.636;2022-12-17T13:11:38;101644.69;;;-3.04;91.99
10060;BME280;5069;49.306;8.636;2022-12-17T13:14:58;101641.69;;;-3.13;94.43
10060;BME280;5069;49.306;8.636;2022-12-17T13:18:27;101647.47;;;-3.39;95.75
10060;BME280;5069;49.306;8.636;2022-12-17T13:21:29;101642.34;;;-3.58;99.07
10060;BME280;5069;49.306;8.636;2022-12-17T13:24:31;101640.16;;;-3.49;99.27
10060;BME280;5069;49.306;8.636;2022-12-17T13:30:36;101637.28;;;-3.95;100.00
10060;BME280;5069;49.306;8.636;2022-12-17T13:33:59;101626.38;;;-3.90;100.00
10060;BME280;5069;49.306;8.636;2022-12-17T13:37:31;101637.75;;;-4.04;100.00
10060;BME280;5069;49.306;8.636;2022-12-17T13:40:45;101638.25;;;-3.93;100.00
10060;BME280;5069;49.306;8.636;2022-12-17T13:43:51;101639.56;;;-4.21;100.00
10060;BME280;5069;49.306;8.636;2022-12-17T13:46:54;101642.44;;;-4.51;100.00
10060;BME280;5069;49.306;8.636;2022-12-17T13:49:58;101645.63;;;-4.38;100.00
10060;BME280;5069;49.306;8.636;2022-12-17T13:53:20;101648.13;;;-4.22;100.00
10060;BME280;5069;49.306;8.636;2022-12-17T13:59:27;101665.06;;;-4.44;100.00
10060;BME280;5069;49.306;8.636;2022-12-17T14:02:32;101671.91;;;-4.63;100.00
10060;BME280;5069;49.306;8.636;2022-12-17T14:05:35;101673.38;;;-4.50;100.00
10060;BME280;5069;49.306;8.636;2022-12-17T14:08:38;101676.75;;;-4.51;100.00
10060;BME280;5069;49.306;8.636;2022-12-17T14:11:41;101668.00;;;-4.54;100.00
10060;BME280;5069;49.306;8.636;2022-12-17T14:15:03;101659.09;;;-4.43;100.00
10060;BME280;5069;49.306;8.636;2022-12-17T14:18:13;101663.13;;;-4.31;100.00
10060;BME280;5069;49.306;8.636;2022-12-17T14:21:15;101660.84;;;-4.42;100.00
10060;BME280;5069;49.306;8.636;2022-12-17T14:24:19;101655.59;;;-4.45;100.00
10060;BME280;5069;49.306;8.636;2022-12-17T14:27:34;101657.72;;;-4.54;100.00
10060;BME280;5069;49.306;8.636;2022-12-17T14:30:38;101668.88;;;-4.72;100.00
10060;BME280;5069;49.306;8.636;2022-12-17T14:34:07;101664.13;;;-4.64;100.00
10060;BME280;5069;49.306;8.636;2022-12-17T14:37:16;101656.69;;;-4.58;100.00
10060;BME280;5069;49.306;8.636;2022-12-17T14:40:20;101661.34;;;-4.69;100.00
10060;BME280;5069;49.306;8.636;2022-12-17T14:43:26;101666.69;;;-4.64;100.00
10060;BME280;5069;49.306;8.636;2022-12-17T14:46:30;101669.47;;;-4.60;100.00
10060;BME280;5069;49.306;8.636;2022-12-17T14:50:22;101667.13;;;-4.55;100.00
10060;BME280;5069;49.306;8.636;2022-12-17T14:53:25;101675.13;;;-4.67;100.00
10060;BME280;5069;49.306;8.636;2022-12-17T14:56:27;101672.56;;;-4.67;100.00
10060;BME280;5069;49.306;8.636;2022-12-17T14:59:37;101683.91;;;-4.63;100.00
10060;BME280;5069;49.306;8.636;2022-12-17T15:02:41;101678.28;;;-4.54;100.00
10060;BME280;5069;49.306;8.636;2022-12-17T15:05:45;101685.38;;;-4.50;100.00
10060;BME280;5069;49.306;8.636;2022-12-17T15:08:49;101678.66;;;-4.29;100.00
10060;BME280;5069;49.306;8.636;2022-12-17T15:11:51;101685.75;;;-4.06;100.00
10060;BME280;5069;49.306;8.636;2022-12-17T15:14:52;101688.44;;;-4.22;100.00
10060;BME280;5069;49.306;8.636;2022-12-17T15:17:54;101686.69;;;-4.41;100.00
10060;BME280;5069;49.306;8.636;2022-12-17T15:20:56;101696.25;;;-4.74;100.00
10060;BME280;5069;49.306;8.636;2022-12-17T15:23:57;101695.19;;;-4.95;100.00
10060;BME280;5069;49.306;8.636;2022-12-17T15:26:59;101696.63;;;-5.00;100.00
10060;BME280;5069;49.306;8.636;2022-12-17T15:30:00;101710.88;;;-5.07;100.00
10060;BME280;5069;49.306;8.636;2022-12-17T15:33:02;101708.16;;;-5.10;100.00
10060;BME280;5069;49.306;8.636;2022-12-17T15:36:08;101714.09;;;-5.11;100.00
10060;BME280;5069;49.306;8.636;2022-12-17T15:39:10;101706.31;;;-5.12;100.00
10060;BME280;5069;49.306;8.636;2022-12-17T15:42:11;101711.75;;;-5.06;100.00
10060;BME280;5069;49.306;8.636;2022-12-17T15:45:31;101706.63;;;-5.06;100.00
10060;BME280;5069;49.306;8.636;2022-12-17T15:48:33;101711.75;;;-5.06;100.00
10060;BME280;5069;49.306;8.636;2022-12-17T15:51:35;101703.13;;;-5.08;100.00
10060;BME280;5069;49.306;8.636;2022-12-17T15:54:36;101716.69;;;-5.11;100.00
10060;BME280;5069;49.306;8.636;2022-12-17T15:57:38;101716.38;;;-5.17;100.00
10060;BME280;5069;49.306;8.636;2022-12-17T16:00:39;101711.19;;;-5.18;100.00
10060;BME280;5069;49.306;8.636;2022-12-17T16:03:41;101710.88;;;-5.24;100.00
10060;BME280;5069;49.306;8.636;2022-12-17T16:06:42;101717.91;;;-5.20;100.00
10060;BME280;5069;49.306;8.636;2022-12-17T16:09:44;101718.88;;;-5.34;100.00
10060;BME280;5069;49.306;8.636;2022-12-17T16:12:45;101712.81;;;-5.53;100.00
10060;BME280;5069;49.306;8.636;2022-12-17T16:15:55;101717.13;;;-5.52;100.00
10060;BME280;5069;49.306;8.636;2022-12-17T16:19:04;101725.66;;;-5.36;100.00
10060;BME280;5069;49.306;8.636;2022-12-17T16:22:05;101716.31;;;-5.34;100.00
10060;BME280;5069;49.306;8.636;2022-12-17T16:25:07;101715.06;;;-5.43;100.00
10060;BME280;5069;49.306;8.636;2022-12-17T16:28:08;101717.31;;;-5.49;100.00
10060;BME280;5069;49.306;8.636;2022-12-17T16:31:12;101722.16;;;-4.87;100.00
10060;BME280;5069;49.306;8.636;2022-12-17T16:34:14;101712.00;;;-4.50;100.00
10060;BME280;5069;49.306;8.636;2022-12-17T16:37:15;101713.66;;;-4.86;100.00
10060;BME280;5069;49.306;8.636;2022-12-17T16:40:17;101719.50;;;-5.22;100.00
10060;BME280;5069;49.306;8.636;2022-12-17T16:43:18;101719.25;;;-5.11;100.00
10060;BME280;5069;49.306;8.636;2022-12-17T16:49:26;101727.06;;;-5.09;100.00
10060;BME280;5069;49.306;8.636;2022-12-17T16:52:28;101716.00;;;-5.24;100.00
10060;BME280;5069;49.306;8.636;2022-12-17T16:55:29;101729.25;;;-5.33;100.00
10060;BME280;5069;49.306;8.636;2022-12-17T16:58:31;101727.44;;;-5.35;100.00
10060;BME280;5069;49.306;8.636;2022-12-17T17:01:33;101733.03;;;-5.43;100.00
10060;BME280;5069;49.306;8.636;2022-12-17T17:04:34;101737.38;;;-5.42;100.00
10060;BME280;5069;49.306;8.636;2022-12-17T17:07:36;101740.91;;;-5.39;100.00
10060;BME280;5069;49.306;8.636;2022-12-17T17:10:38;101745.56;;;-5.49;100.00
10060;BME280;5069;49.306;8.636;2022-12-17T17:13:40;101756.63;;;-5.33;100.00
10060;BME280;5069;49.306;8.636;2022-12-17T17:16:42;101763.09;;;-5.42;100.00
10060;BME280;5069;49.306;8.636;2022-12-17T17:19:43;101758.97;;;-5.38;100.00
10060;BME280;5069;49.306;8.636;2022-12-17T17:22:45;101763.38;;;-5.19;100.00
10060;BME280;5069;49.306;8.636;2022-12-17T17:25:46;101770.78;;;-5.25;100.00
10060;BME280;5069;49.306;8.636;2022-12-17T17:28:59;101777.28;;;-5.32;100.00
10060;BME280;5069;49.306;8.636;2022-12-17T17:32:01;101775.41;;;-5.34;100.00
10060;BME280;5069;49.306;8.636;2022-12-17T17:35:12;101772.06;;;-5.33;100.00
10060;BME280;5069;49.306;8.636;2022-12-17T17:38:13;101769.97;;;-5.41;100.00
10060;BME280;5069;49.306;8.636;2022-12-17T17:41:18;101766.59;;;-5.39;100.00
10060;BME280;5069;49.306;8.636;2022-12-17T17:44:20;101773.50;;;-5.55;100.00
10060;BME280;5069;49.306;8.636;2022-12-17T17:47:22;101771.16;;;-5.50;100.00
10060;BME280;5069;49.306;8.636;2022-12-17T17:50:23;101773.50;;;-5.22;100.00
10060;BME280;5069;49.306;8.636;2022-12-17T17:53:25;101776.88;;;-5.07;100.00
10060;BME280;5069;49.306;8.636;2022-12-17T17:56:29;101779.44;;;-5.23;100.00
10060;BME280;5069;49.306;8.636;2022-12-17T17:59:30;101775.13;;;-5.24;100.00
10060;BME280;5069;49.306;8.636;2022-12-17T18:02:34;101780.56;;;-5.34;100.00
10060;BME280;5069;49.306;8.636;2022-12-17T18:05:40;101782.97;;;-5.21;100.00
10060;BME280;5069;49.306;8.636;2022-12-17T18:08:44;101788.56;;;-5.12;100.00